createdAt,value
2022-08-26T00:02:30.764Z,1014.34
2022-08-26T00:07:37.910Z,1014.30
2022-08-26T00:12:45.091Z,1014.24
2022-08-26T00:17:52.368Z,1014.27
2022-08-26T00:22:59.580Z,1014.29
2022-08-26T00:28:06.794Z,1014.26
2022-08-26T00:33:14.051Z,1014.26
2022-08-26T00:38:21.291Z,1014.26
2022-08-26T00:43:28.492Z,1014.35
2022-08-26T00:48:35.691Z,1014.27
2022-08-26T00:53:42.848Z,1014.31
2022-08-26T00:58:50.004Z,1014.31
2022-08-26T01:03:57.219Z,1014.28
2022-08-26T01:09:04.430Z,1014.27
2022-08-26T01:14:11.602Z,1014.23
2022-08-26T01:19:18.765Z,1014.24
2022-08-26T01:24:25.983Z,1014.14
2022-08-26T01:29:33.154Z,1014.23
2022-08-26T01:34:40.349Z,1014.19
2022-08-26T01:39:47.590Z,1014.15
2022-08-26T01:44:54.706Z,1014.19
2022-08-26T01:50:02.831Z,1014.20
2022-08-26T01:55:09.112Z,1014.22
2022-08-26T02:00:16.316Z,1014.23
2022-08-26T02:05:23.450Z,1014.25
2022-08-26T02:10:30.642Z,1014.26
2022-08-26T02:15:37.849Z,1014.27
2022-08-26T02:20:45.105Z,1014.25
2022-08-26T02:25:55.102Z,1014.21
2022-08-26T02:31:02.706Z,1014.24
2022-08-26T02:36:09.487Z,1014.22
2022-08-26T02:41:16.739Z,1014.29
2022-08-26T02:46:27.868Z,1014.27
2022-08-26T02:51:31.264Z,1014.22
2022-08-26T02:56:38.443Z,1014.23
2022-08-26T03:01:45.680Z,1014.24
2022-08-26T03:06:53.139Z,1014.21
2022-08-26T03:12:00.183Z,1014.23
2022-08-26T03:17:07.370Z,1014.22
2022-08-26T03:22:14.705Z,1014.22
2022-08-26T03:27:21.856Z,1014.20
2022-08-26T03:32:29.043Z,1014.20
2022-08-26T03:37:36.289Z,1014.19
2022-08-26T03:42:45.420Z,1014.21
2022-08-26T03:47:51.754Z,1014.14
2022-08-26T03:52:58.986Z,1014.19
2022-08-26T03:58:06.258Z,1014.20
2022-08-26T04:03:18.632Z,1014.21
2022-08-26T04:08:22.670Z,1014.24
2022-08-26T04:13:29.937Z,1014.19
2022-08-26T04:18:37.370Z,1014.16
2022-08-26T04:23:47.511Z,1014.10
2022-08-26T04:28:53.136Z,1014.17
2022-08-26T04:34:00.367Z,1014.13
2022-08-26T04:39:07.628Z,1014.13
2022-08-26T04:44:14.921Z,1014.15
2022-08-26T04:49:22.185Z,1014.21
2022-08-26T04:54:29.416Z,1014.13
2022-08-26T04:59:39.336Z,1014.18
2022-08-26T05:04:43.817Z,1014.19
2022-08-26T05:09:51.081Z,1014.25
2022-08-26T05:14:58.383Z,1014.29
2022-08-26T05:20:05.536Z,1014.32
2022-08-26T05:25:12.739Z,1014.30
2022-08-26T05:30:19.906Z,1014.37
2022-08-26T05:35:27.104Z,1014.35
2022-08-26T05:40:34.345Z,1014.39
2022-08-26T05:45:45.820Z,1014.38
2022-08-26T05:50:48.699Z,1014.36
2022-08-26T05:55:55.848Z,1014.40
2022-08-26T06:01:03.225Z,1014.39
2022-08-26T06:06:10.594Z,1014.42
2022-08-26T06:11:18.600Z,1014.48
2022-08-26T06:16:24.897Z,1014.50
2022-08-26T06:21:32.070Z,1014.50
2022-08-26T06:26:39.247Z,1014.50
2022-08-26T06:31:46.502Z,1014.48
2022-08-26T06:36:53.665Z,1014.50
2022-08-26T06:42:00.912Z,1014.55
2022-08-26T06:47:08.166Z,1014.52
2022-08-26T06:52:17.982Z,1014.56
2022-08-26T06:57:22.668Z,1014.57
2022-08-26T07:02:29.906Z,1014.58
2022-08-26T07:07:37.107Z,1014.62
2022-08-26T07:12:47.266Z,1014.56
2022-08-26T07:17:51.461Z,1014.61
2022-08-26T07:22:58.656Z,1014.66
2022-08-26T07:28:05.861Z,1014.65
2022-08-26T07:33:13.106Z,1014.66
2022-08-26T07:38:20.306Z,1014.61
2022-08-26T07:43:27.535Z,1014.60
2022-08-26T07:48:34.788Z,1014.58
2022-08-26T07:53:42.014Z,1014.56
2022-08-26T07:58:51.885Z,1014.58
2022-08-26T08:03:56.528Z,1014.53
2022-08-26T08:09:03.717Z,1014.57
2022-08-26T08:14:11.899Z,1014.54
2022-08-26T08:19:18.195Z,1014.52
2022-08-26T08:24:25.372Z,1014.51
2022-08-26T08:29:32.598Z,1014.45
2022-08-26T08:39:49.214Z,1014.39
2022-08-26T08:44:56.227Z,1014.41
2022-08-26T08:50:04.035Z,1014.37
2022-08-26T08:55:14.826Z,1014.36
2022-08-26T09:00:18.447Z,1014.36
2022-08-26T09:05:25.654Z,1014.30
2022-08-26T09:10:32.983Z,1014.34
2022-08-26T09:15:40.146Z,1014.29
2022-08-26T09:20:47.320Z,1014.29
2022-08-26T09:31:01.755Z,1014.30
2022-08-26T09:36:08.911Z,1014.30
2022-08-26T09:41:16.125Z,1014.28
2022-08-26T09:46:23.402Z,1014.23
2022-08-26T09:51:30.567Z,1014.22
2022-08-26T09:56:37.737Z,1014.17
2022-08-26T10:01:45.354Z,1014.08
2022-08-26T10:06:52.120Z,1013.98
2022-08-26T10:11:59.309Z,1013.95
2022-08-26T10:17:06.955Z,1013.87
2022-08-26T10:22:13.676Z,1013.81
2022-08-26T10:27:20.845Z,1013.76
2022-08-26T10:32:28.071Z,1013.68
2022-08-26T10:37:35.226Z,1013.66
2022-08-26T10:42:42.408Z,1013.61
2022-08-26T10:47:49.639Z,1013.53
2022-08-26T10:52:56.867Z,1013.55
2022-08-26T10:58:05.010Z,1013.52
2022-08-26T11:03:21.644Z,1013.45
2022-08-26T11:08:18.521Z,1013.40
2022-08-26T11:13:25.766Z,1013.41
2022-08-26T11:18:32.994Z,1013.34
2022-08-26T11:23:40.363Z,1013.21
2022-08-26T11:28:47.374Z,1013.12
2022-08-26T11:33:54.571Z,1013.16
2022-08-26T11:39:02.780Z,1013.11
2022-08-26T11:44:09.041Z,1013.01
2022-08-26T11:49:16.202Z,1012.94
2022-08-26T11:54:32.901Z,1012.86
2022-08-26T11:59:30.728Z,1012.89
2022-08-26T12:04:38.019Z,1012.87
2022-08-26T12:09:47.455Z,1012.81
2022-08-26T12:14:54.664Z,1012.75
2022-08-26T12:20:01.855Z,1012.71
2022-08-26T12:25:09.012Z,1012.63
2022-08-26T12:30:17.982Z,1012.59
2022-08-26T12:35:23.403Z,1012.72
2022-08-26T12:40:30.710Z,1012.64
2022-08-26T12:45:37.789Z,1012.63
2022-08-26T12:50:47.046Z,1012.61
2022-08-26T12:55:54.255Z,1012.58
2022-08-26T13:01:01.661Z,1012.54
2022-08-26T13:06:08.717Z,1012.52
2022-08-26T13:11:15.960Z,1012.44
2022-08-26T13:16:23.274Z,1012.45
2022-08-26T13:21:32.034Z,1012.39
2022-08-26T13:26:37.582Z,1012.33
2022-08-26T13:31:45.102Z,1012.24
2022-08-26T13:36:52.050Z,1012.23
2022-08-26T13:41:59.317Z,1012.19
2022-08-26T13:47:06.512Z,1012.03
2022-08-26T13:52:13.686Z,1011.97
2022-08-26T13:57:21.566Z,1011.88
2022-08-26T14:02:28.747Z,1011.86
2022-08-26T14:07:35.944Z,1011.84
2022-08-26T14:12:43.124Z,1011.81
2022-08-26T14:17:50.321Z,1011.81
2022-08-26T14:23:13.096Z,1011.85
2022-08-26T14:28:04.722Z,1011.79
2022-08-26T14:33:11.972Z,1011.81
2022-08-26T14:38:19.156Z,1011.83
2022-08-26T14:43:26.330Z,1011.72
2022-08-26T14:48:33.519Z,1011.82
2022-08-26T14:53:40.798Z,1011.81
2022-08-26T14:58:48.017Z,1011.85
2022-08-26T15:03:55.192Z,1011.82
2022-08-26T15:09:02.519Z,1011.83
2022-08-26T15:14:19.066Z,1011.86
2022-08-26T15:19:16.828Z,1011.81
2022-08-26T15:24:24.153Z,1011.79
2022-08-26T15:29:31.405Z,1011.72
2022-08-26T15:34:38.615Z,1011.69
2022-08-26T15:39:45.882Z,1011.65
2022-08-26T15:44:53.066Z,1011.67
2022-08-26T15:50:01.376Z,1011.73
2022-08-26T15:55:08.647Z,1011.71
2022-08-26T16:00:15.838Z,1011.70
2022-08-26T16:05:23.202Z,1011.63
2022-08-26T16:10:30.418Z,1011.64
2022-08-26T16:15:37.757Z,1011.65
2022-08-26T16:20:44.894Z,1011.72
2022-08-26T16:25:52.176Z,1011.70
2022-08-26T16:30:59.491Z,1011.70
2022-08-26T16:36:06.621Z,1011.78
2022-08-26T16:41:13.799Z,1011.87
2022-08-26T16:46:21.050Z,1011.91
2022-08-26T16:51:28.279Z,1011.96
2022-08-26T16:56:35.459Z,1011.99
2022-08-26T17:01:42.691Z,1011.93
2022-08-26T17:06:49.829Z,1011.85
2022-08-26T17:11:57.021Z,1011.80
2022-08-26T17:17:04.305Z,1012.01
2022-08-26T17:22:11.503Z,1011.96
2022-08-26T17:27:18.754Z,1011.95
2022-08-26T17:32:26.553Z,1012.03
2022-08-26T17:37:33.735Z,1012.08
2022-08-26T17:42:41.048Z,1012.22
2022-08-26T17:47:48.210Z,1012.31
2022-08-26T17:52:55.410Z,1012.35
2022-08-26T17:58:04.004Z,1012.47
2022-08-26T18:03:10.016Z,1012.58
2022-08-26T18:08:17.046Z,1012.69
2022-08-26T18:13:24.229Z,1012.89
2022-08-26T18:18:31.412Z,1013.30
2022-08-26T18:23:41.718Z,1013.42
2022-08-26T18:28:49.002Z,1013.36
2022-08-26T18:33:56.181Z,1013.39
2022-08-26T18:39:03.355Z,1013.29
2022-08-26T18:44:13.669Z,1013.54
2022-08-26T18:49:17.774Z,1013.85
2022-08-26T18:54:25.075Z,1013.75
2022-08-26T18:59:32.383Z,1013.86
2022-08-26T19:04:39.794Z,1014.21
2022-08-26T19:09:47.444Z,1014.66
2022-08-26T19:14:54.825Z,1014.80
2022-08-26T19:20:02.323Z,1014.74
2022-08-26T19:25:09.939Z,1014.58
2022-08-26T19:30:17.560Z,1014.51
2022-08-26T19:35:25.088Z,1014.51
2022-08-26T19:40:32.737Z,1014.46
2022-08-26T19:45:40.187Z,1014.45
2022-08-26T19:50:47.686Z,1014.54
2022-08-26T19:55:55.198Z,1014.68
2022-08-26T20:01:02.869Z,1014.89
2022-08-26T20:06:10.431Z,1015.08
2022-08-26T20:11:17.832Z,1015.12
2022-08-26T20:16:25.336Z,1015.06
2022-08-26T20:21:32.962Z,1015.10
2022-08-26T20:26:40.474Z,1015.14
2022-08-26T20:31:47.909Z,1015.13
2022-08-26T20:36:55.730Z,1015.17
2022-08-26T20:42:02.954Z,1015.13
2022-08-26T20:47:10.231Z,1015.19
2022-08-26T20:52:17.446Z,1015.21
2022-08-26T20:57:24.706Z,1015.17
2022-08-26T21:02:31.987Z,1015.16
2022-08-26T21:07:39.224Z,1015.12
2022-08-26T21:12:46.458Z,1015.21
2022-08-26T21:17:53.649Z,1015.19
2022-08-26T21:23:00.826Z,1015.33
2022-08-26T21:28:08.126Z,1015.28
2022-08-26T21:33:15.293Z,1015.29
2022-08-26T21:38:22.476Z,1015.27
2022-08-26T21:43:35.517Z,1015.26
2022-08-26T21:48:36.867Z,1015.27
2022-08-26T21:53:44.141Z,1015.33
2022-08-26T21:58:52.469Z,1015.32
2022-08-26T22:03:58.506Z,1015.35
2022-08-26T22:09:05.696Z,1015.32
2022-08-26T22:14:12.979Z,1015.34
2022-08-26T22:19:20.273Z,1015.41
2022-08-26T22:24:29.074Z,1015.43
2022-08-26T22:29:36.368Z,1015.47
2022-08-26T22:34:43.647Z,1015.51
2022-08-26T22:39:50.941Z,1015.49
2022-08-26T22:44:58.108Z,1015.47
2022-08-26T22:50:05.326Z,1015.48
2022-08-26T22:55:12.573Z,1015.49
2022-08-26T23:00:19.768Z,1015.47
2022-08-26T23:05:26.995Z,1015.48
2022-08-26T23:10:34.229Z,1015.42
2022-08-26T23:15:41.414Z,1015.38
2022-08-26T23:20:49.307Z,1015.35
2022-08-26T23:25:56.581Z,1015.41
2022-08-26T23:31:03.773Z,1015.43
2022-08-26T23:36:14.628Z,1015.39
2022-08-26T23:41:18.141Z,1015.40
2022-08-26T23:46:25.338Z,1015.39
2022-08-26T23:51:32.617Z,1015.32
2022-08-26T23:56:39.818Z,1015.28
